Time;durP1;ratioP1;P1;durP2;ratioP2;P2;SDS_P1;SDS_P2;PMS_P1;PMS_P2;Temp;Humidity;BMP_temperature;BMP_pressure;BME280_temperature;BME280_humidity;BME280_pressure;Samples;Min_cycle;Max_cycle;Signal;HPM_P1;HPM_P2
2022/08/03 00:03:42;;;;;;;16.62;2.35;;;;;;;21.15;64.86;100903.48;5152399;56;1141103;-66
2022/08/03 00:08:48;;;;;;;16.05;2.37;;;;;;;21.11;65.17;100910.22;5150843;56;1138959;-63
2022/08/03 00:13:54;;;;;;;15.75;2.85;;;;;;;21.12;65.55;100908.37;5151526;56;1139152;-64
2022/08/03 00:18:59;;;;;;;6.33;2.98;;;;;;;21.06;65.84;100909.43;5155462;56;1139113;-63
2022/08/03 00:24:06;;;;;;;8.30;2.62;;;;;;;20.99;66.14;100904.41;5156094;56;1136831;-63
2022/08/03 00:29:12;;;;;;;16.52;2.32;;;;;;;20.89;66.56;100898.94;5128673;56;1136977;-64
2022/08/03 00:34:18;;;;;;;16.35;2.58;;;;;;;20.85;66.95;100897.61;5075191;57;1139121;-65
2022/08/03 00:39:23;;;;;;;17.20;1.90;;;;;;;20.79;67.38;100895.11;5119422;57;1139041;-65
2022/08/03 00:44:29;;;;;;;27.32;2.83;;;;;;;20.73;67.68;100894.48;5133420;57;1139066;-64
2022/08/03 00:49:35;;;;;;;19.05;2.40;;;;;;;20.74;68.16;100893.98;5133512;57;1139010;-66
2022/08/03 00:54:41;;;;;;;38.02;3.77;;;;;;;20.70;68.45;100884.08;5123941;57;1138868;-66
2022/08/03 00:59:47;;;;;;;19.95;2.77;;;;;;;20.73;68.59;100883.73;5121475;57;1139298;-63
2022/08/03 01:04:53;;;;;;;14.80;2.42;;;;;;;20.71;68.71;100890.63;5121506;57;1139102;-63
2022/08/03 01:10:23;;;;;;;16.80;2.27;;;;;;;20.66;68.75;100893.50;5121621;57;1139261;-64
2022/08/03 01:16:06;;;;;;;11.75;2.08;;;;;;;20.59;68.86;100888.52;5121757;57;1139070;-65
2022/08/03 01:21:22;;;;;;;13.70;2.70;;;;;;;20.49;68.89;100882.48;5122264;57;1141281;-65
2022/08/03 01:26:34;;;;;;;28.50;2.50;;;;;;;20.36;69.39;100878.51;5118581;57;1141039;-65
2022/08/03 01:32:02;;;;;;;24.20;2.70;;;;;;;20.30;69.97;100877.01;5112111;57;1141540;-65
2022/08/03 01:37:11;;;;;;;22.85;2.92;;;;;;;20.26;70.60;100872.98;5069222;57;1141136;-65
2022/08/03 01:42:18;;;;;;;23.70;3.08;;;;;;;20.17;71.23;100873.50;5039045;58;1141151;-64
2022/08/03 01:47:26;;;;;;;24.80;2.90;;;;;;;20.09;71.55;100874.88;5039294;58;1141153;-63
2022/08/03 01:52:32;;;;;;;13.72;2.52;;;;;;;20.08;71.73;100866.99;5045171;57;1141104;-66
2022/08/03 01:57:42;;;;;;;27.20;4.42;;;;;;;20.03;72.06;100868.84;5071415;57;1141372;-65
2022/08/03 02:02:50;;;;;;;20.08;2.70;;;;;;;20.03;72.45;100863.47;5118243;57;1141055;-64
2022/08/03 02:07:57;;;;;;;20.95;3.22;;;;;;;20.03;72.48;100860.78;5150490;57;1141115;-65
2022/08/03 02:13:05;;;;;;;12.40;2.12;;;;;;;20.10;73.21;100863.63;5150269;57;1141146;-64
2022/08/03 02:18:13;;;;;;;27.80;4.50;;;;;;;20.19;73.36;100867.45;5112506;57;1141096;-63
2022/08/03 02:23:20;;;;;;;21.55;3.15;;;;;;;20.21;73.53;100856.03;5066910;57;1141242;-63
2022/08/03 02:28:35;;;;;;;19.12;2.95;;;;;;;20.21;73.49;100852.52;5090395;57;1141088;-64
2022/08/03 02:33:45;;;;;;;14.00;2.60;;;;;;;20.15;73.58;100841.98;4978747;58;1141139;-64
2022/08/03 02:38:55;;;;;;;13.78;2.70;;;;;;;20.10;73.72;100844.84;5104669;57;1141174;-63
2022/08/03 02:44:05;;;;;;;16.20;3.08;;;;;;;19.99;74.14;100844.20;5071202;57;1141132;-64
2022/08/03 02:49:15;;;;;;;10.75;2.50;;;;;;;19.98;74.18;100845.72;5116175;56;1141103;-63
2022/08/03 02:54:23;;;;;;;37.42;4.28;;;;;;;20.03;74.44;100846.02;5087843;57;1138923;-65
2022/08/03 02:59:31;;;;;;;18.60;3.12;;;;;;;20.09;74.67;100848.53;5059270;58;1139093;-64
2022/08/03 03:04:37;;;;;;;13.93;2.87;;;;;;;20.11;74.54;100841.14;5146398;57;1139035;-64
2022/08/03 03:09:44;;;;;;;16.02;2.85;;;;;;;20.09;74.58;100844.50;5150154;57;1138954;-64
2022/08/03 03:14:49;;;;;;;32.75;5.70;;;;;;;20.08;74.50;100845.00;5150524;57;1138362;-66
2022/08/03 03:19:56;;;;;;;26.82;4.30;;;;;;;20.06;74.58;100845.68;5024177;58;1138954;-64
2022/08/03 03:25:03;;;;;;;48.20;5.17;;;;;;;20.02;74.67;100848.37;5171891;56;1139011;-64
2022/08/03 03:30:10;;;;;;;28.92;4.42;;;;;;;20.05;74.76;100852.56;5151828;56;1138982;-65
2022/08/03 03:35:16;;;;;;;26.42;3.85;;;;;;;20.09;74.59;100855.24;5121168;57;1139130;-65
2022/08/03 03:40:22;;;;;;;63.70;6.67;;;;;;;20.01;74.52;100848.88;5154868;57;1139009;-65
2022/08/03 03:45:30;;;;;;;33.60;4.45;;;;;;;20.01;74.66;100855.59;5154880;57;1139014;-66
2022/08/03 03:50:39;;;;;;;61.45;8.65;;;;;;;19.91;74.54;100864.34;5083131;57;1139067;-64
2022/08/03 03:55:44;;;;;;;51.23;7.67;;;;;;;19.83;74.52;100859.52;5154378;56;1139286;-63
2022/08/03 04:00:52;;;;;;;59.60;6.37;;;;;;;19.83;74.97;100864.37;5153698;56;1139029;-65
2022/08/03 04:11:38;;;;;;;24.16;4.26;;;;;;;19.95;74.97;100863.00;5150269;57;1141258;-64
2022/08/03 04:16:49;;;;;;;33.93;5.13;;;;;;;20.07;74.81;100874.21;5150473;56;1141396;-66
2022/08/03 04:21:59;;;;;;;19.80;4.30;;;;;;;20.16;74.54;100875.88;5224275;56;1141393;-63
2022/08/03 04:27:09;;;;;;;13.78;3.70;;;;;;;20.24;74.30;100876.34;5231982;56;1141022;-66
2022/08/03 04:32:16;;;;;;;9.78;3.40;;;;;;;20.20;73.69;100874.50;5153110;56;1141006;-65
2022/08/03 04:37:46;;;;;;;3.58;2.80;;;;;;;20.12;73.58;100874.54;5154835;57;1138948;-64
2022/08/03 04:42:55;;;;;;;10.95;3.42;;;;;;;20.16;73.86;100887.97;5059790;58;1139221;-64
2022/08/03 04:48:02;;;;;;;11.40;3.33;;;;;;;20.23;73.80;100886.25;5059115;58;1141092;-64
2022/08/03 04:53:07;;;;;;;11.22;3.78;;;;;;;20.27;73.79;100884.91;5059834;58;1141395;-64
2022/08/03 04:58:13;;;;;;;10.95;3.25;;;;;;;20.31;73.74;100880.03;5059548;58;1141371;-64
2022/08/03 05:03:18;;;;;;;8.23;2.87;;;;;;;20.34;73.63;100877.81;5056668;58;1141108;-63
2022/08/03 05:08:25;;;;;;;9.18;2.90;;;;;;;20.46;73.72;100879.67;5055347;58;1138993;-63
2022/08/03 05:13:30;;;;;;;29.95;4.20;;;;;;;20.58;73.83;100879.61;5055228;58;1139383;-63
2022/08/03 05:18:36;;;;;;;11.33;2.83;;;;;;;20.69;73.76;100880.55;5058255;58;1141116;-65
2022/08/03 05:23:42;;;;;;;8.20;2.70;;;;;;;20.80;73.82;100884.69;5241988;56;1141353;-66
2022/08/03 05:28:48;;;;;;;4.47;2.92;;;;;;;20.93;74.04;100891.66;5220287;56;1139217;-64
2022/08/03 05:33:54;;;;;;;5.55;3.37;;;;;;;21.19;74.59;100898.59;5155151;57;1138964;-65
2022/08/03 05:39:00;;;;;;;10.05;3.00;;;;;;;21.44;74.14;100886.64;5114250;57;1139043;-63
2022/08/03 05:44:06;;;;;;;5.40;2.47;;;;;;;21.62;72.92;100884.98;5069385;57;1141004;-65
2022/08/03 05:49:12;;;;;;;9.85;2.90;;;;;;;21.70;72.59;100883.05;5067358;58;1138954;-64
2022/08/03 05:54:18;;;;;;;5.55;2.60;;;;;;;21.79;72.94;100881.13;5066957;58;1139008;-64
2022/08/03 05:59:24;;;;;;;5.33;2.52;;;;;;;21.88;72.87;100875.14;5041668;58;1139388;-65
2022/08/03 06:04:30;;;;;;;9.25;2.33;;;;;;;22.11;72.87;100881.34;5111935;57;1139387;-64
2022/08/03 06:09:35;;;;;;;3.30;2.30;;;;;;;22.30;71.81;100887.53;5061027;57;1139497;-66
2022/08/03 06:14:42;;;;;;;8.98;2.25;;;;;;;22.40;71.25;100884.54;5092544;57;1139215;-65
2022/08/03 06:19:48;;;;;;;4.17;2.62;;;;;;;22.48;71.27;100885.77;4987955;57;1139023;-64
2022/08/03 06:24:54;;;;;;;2.65;2.37;;;;;;;22.58;70.79;100890.89;4987140;58;1139037;-67
2022/08/03 06:30:00;;;;;;;5.12;2.98;;;;;;;22.63;70.78;100900.06;5052679;57;1138993;-65
2022/08/03 06:35:07;;;;;;;6.20;2.47;;;;;;;22.68;70.38;100899.00;5121528;57;1136842;-64
2022/08/03 06:40:17;;;;;;;3.65;2.98;;;;;;;22.74;70.24;100905.52;5071337;57;1136929;-66
2022/08/03 06:45:23;;;;;;;4.30;2.33;;;;;;;22.82;70.36;100901.89;5041762;58;1136876;-63
2022/08/03 06:50:29;;;;;;;5.62;2.80;;;;;;;22.90;70.26;100917.47;5039568;58;1136956;-63
2022/08/03 06:55:34;;;;;;;15.18;3.35;;;;;;;22.98;70.00;100908.41;4982045;58;1137217;-63
2022/08/03 07:00:40;;;;;;;7.83;2.50;;;;;;;23.05;69.39;100914.22;5090345;57;1139030;-66
2022/08/03 07:05:46;;;;;;;6.62;3.83;;;;;;;23.13;69.00;100919.99;5125885;57;1136910;-64
2022/08/03 07:10:52;;;;;;;7.15;3.12;;;;;;;23.22;69.25;100913.98;5132446;57;1136895;-64
2022/08/03 07:15:57;;;;;;;2.42;2.30;;;;;;;23.35;68.62;100910.90;5097520;56;1136986;-65
2022/08/03 07:21:03;;;;;;;4.10;2.17;;;;;;;23.69;68.88;100910.69;5133867;56;1136929;-67
2022/08/03 07:26:09;;;;;;;2.05;1.95;;;;;;;24.10;67.80;100914.87;5133552;57;1137061;-64
2022/08/03 07:31:15;;;;;;;7.05;3.50;;;;;;;24.44;65.24;100904.06;5069363;57;1136893;-67
2022/08/03 07:36:21;;;;;;;8.03;2.47;;;;;;;24.71;64.81;100902.34;5058961;58;1136748;-65
2022/08/03 07:41:27;;;;;;;3.58;2.52;;;;;;;25.03;65.51;100912.17;5129761;57;1137355;-66
2022/08/03 07:46:32;;;;;;;4.75;2.95;;;;;;;25.32;62.18;100910.98;5136076;57;1137114;-67
2022/08/03 07:51:39;;;;;;;2.42;2.22;;;;;;;25.57;61.64;100901.20;5135751;57;1137004;-65
2022/08/03 07:56:45;;;;;;;6.25;3.42;;;;;;;25.82;61.32;100889.23;5135768;57;1136905;-65
2022/08/03 08:01:52;;;;;;;4.67;2.37;;;;;;;26.18;59.75;100897.75;5168129;56;1137246;-65
2022/08/03 08:06:58;;;;;;;5.10;2.90;;;;;;;26.39;59.30;100895.86;5153061;57;1134939;-66
2022/08/03 08:12:06;;;;;;;2.30;2.10;;;;;;;26.64;58.05;100892.73;5140019;57;21162;-65
2022/08/03 08:17:13;;;;;;;5.60;2.50;;;;;;;26.78;55.50;100898.41;5121886;56;1134848;-65
2022/08/03 08:22:19;;;;;;;4.65;2.90;;;;;;;26.78;54.46;100888.91;5232776;56;1138905;-66
2022/08/03 08:27:24;;;;;;;5.17;2.27;;;;;;;26.79;54.35;100887.86;5232930;56;1138938;-63
2022/08/03 08:32:30;;;;;;;3.67;2.33;;;;;;;26.89;54.89;100887.39;5197974;56;1139026;-66
2022/08/03 08:37:36;;;;;;;2.75;2.15;;;;;;;27.11;54.89;100888.77;5094507;57;1139277;-64
2022/08/03 08:42:45;;;;;;;2.80;2.60;;;;;;;27.28;52.06;100886.36;5071594;58;1139022;-66
2022/08/03 08:47:52;;;;;;;4.25;1.90;;;;;;;27.28;52.56;100885.84;5071768;58;1139011;-66
2022/08/03 08:53:00;;;;;;;3.20;2.08;;;;;;;27.44;52.93;100881.75;5079442;57;1139006;-65
2022/08/03 08:58:08;;;;;;;2.12;2.02;;;;;;;27.68;50.45;100875.20;5116838;57;1138905;-68
2022/08/03 09:03:16;;;;;;;2.58;2.37;;;;;;;27.74;51.13;100878.41;5116711;57;1139111;-64
2022/08/03 09:08:23;;;;;;;5.25;2.15;;;;;;;27.86;49.78;100875.25;5122134;57;1139277;-65
2022/08/03 09:13:29;;;;;;;3.90;2.40;;;;;;;27.99;48.50;100877.31;5122033;57;1139213;-66
2022/08/03 09:18:35;;;;;;;5.12;2.30;;;;;;;28.10;49.17;100874.92;5124552;56;1138998;-66
2022/08/03 09:23:53;;;;;;;2.30;2.20;;;;;;;28.35;50.53;100874.35;5064824;57;1138980;-65
2022/08/03 09:29:03;;;;;;;7.30;2.55;;;;;;;28.48;48.87;100880.16;5071633;57;1139050;-68
2022/08/03 09:34:12;;;;;;;2.67;2.08;;;;;;;28.55;48.89;100878.20;5128766;56;1139212;-65
2022/08/03 09:39:21;;;;;;;3.02;2.75;;;;;;;28.69;48.50;100877.80;5065249;57;1139258;-63
2022/08/03 09:44:36;;;;;;;5.25;2.10;;;;;;;28.90;47.58;100879.22;5132180;57;1139252;-64
2022/08/03 09:49:45;;;;;;;2.60;2.42;;;;;;;29.17;47.92;100867.43;5132114;56;1139016;-68
2022/08/03 09:54:53;;;;;;;3.27;2.00;;;;;;;29.19;45.97;100868.00;5131417;56;1139094;-67
2022/08/03 10:00:12;;;;;;;2.77;1.65;;;;;;;29.19;46.48;100863.91;5141317;56;1138918;-66
2022/08/03 10:05:19;;;;;;;2.30;2.20;;;;;;;29.15;45.00;100867.36;5182358;56;1138898;-68
2022/08/03 10:10:25;;;;;;;12.53;2.17;;;;;;;29.20;45.49;100856.04;5150747;56;1139029;-67
2022/08/03 10:15:32;;;;;;;7.37;2.02;;;;;;;29.38;45.24;100854.64;5166682;56;1141162;-67
2022/08/03 10:20:48;;;;;;;4.17;1.98;;;;;;;29.67;43.99;100856.14;5211854;56;1138968;-66
2022/08/03 10:25:58;;;;;;;7.55;2.05;;;;;;;29.70;44.82;100848.33;5184367;56;1136905;-66
2022/08/03 10:31:06;;;;;;;1.90;1.80;;;;;;;29.53;42.69;100842.45;5182486;56;1136959;-65
2022/08/03 10:36:15;;;;;;;3.95;2.22;;;;;;;29.56;43.43;100846.07;5190032;56;1136959;-65
2022/08/03 10:41:28;;;;;;;1.85;1.65;;;;;;;29.68;42.96;100842.81;5186604;56;1137145;-65
2022/08/03 10:46:38;;;;;;;5.47;2.85;;;;;;;29.90;42.18;100841.69;5189034;56;1137115;-64
2022/08/03 10:51:48;;;;;;;1.80;1.70;;;;;;;30.17;42.34;100841.51;5186690;56;1136954;-65
2022/08/03 11:02:17;;;;;;;4.10;1.55;;;;;;;30.45;42.54;100843.45;5151123;56;1137094;-63
2022/08/03 11:07:25;;;;;;;3.40;1.80;;;;;;;30.68;39.54;100846.15;5118933;56;1136918;-64
2022/08/03 11:12:33;;;;;;;1.50;1.40;;;;;;;30.63;40.17;100835.66;5130221;56;1136870;-67
2022/08/03 11:17:39;;;;;;;1.27;1.17;;;;;;;30.87;39.74;100834.47;5073675;57;1134859;-69
2022/08/03 11:22:53;;;;;;;4.12;1.70;;;;;;;30.77;39.83;100835.65;5098324;56;1139066;-63
2022/08/03 11:28:27;;;;;;;1.70;1.30;;;;;;;30.87;37.23;100832.27;5121020;56;1138973;-63
2022/08/03 11:33:33;;;;;;;7.47;1.92;;;;;;;30.89;38.93;100824.66;5106058;56;1139008;-62
2022/08/03 11:38:43;;;;;;;2.80;1.50;;;;;;;31.01;38.10;100826.25;5144480;56;1139008;-61
2022/08/03 11:43:49;;;;;;;4.08;1.50;;;;;;;31.22;38.90;100814.34;5096222;57;1138982;-63
2022/08/03 11:48:59;;;;;;;5.55;1.80;;;;;;;31.43;37.25;100821.81;5113939;56;1138986;-63
2022/08/03 11:54:06;;;;;;;1.50;1.40;;;;;;;31.53;36.39;100817.03;5087543;57;1139093;-66
2022/08/03 11:59:12;;;;;;;3.50;1.40;;;;;;;31.66;36.08;100806.61;5123026;56;1139098;-63
2022/08/03 12:04:18;;;;;;;6.80;1.77;;;;;;;31.74;36.62;100797.16;5152052;56;1139038;-66
2022/08/03 12:09:24;;;;;;;1.70;1.60;;;;;;;31.97;35.68;100802.39;5146760;56;1139031;-63
2022/08/03 12:14:30;;;;;;;2.02;1.82;;;;;;;32.05;36.00;100801.97;5150867;56;1138995;-64
2022/08/03 12:19:45;;;;;;;2.02;1.77;;;;;;;32.10;36.07;100799.27;5155648;56;1139077;-65
2022/08/03 12:24:51;;;;;;;3.98;1.65;;;;;;;31.99;35.47;100796.13;5146978;56;1139117;-63
2022/08/03 12:30:00;;;;;;;3.95;1.82;;;;;;;31.90;36.23;100790.82;5119476;57;1138957;-62
2022/08/03 12:35:06;;;;;;;2.37;1.67;;;;;;;32.08;36.01;100785.02;5134912;56;1139012;-63
2022/08/03 12:40:14;;;;;;;1.60;1.50;;;;;;;32.11;35.79;100788.62;5070499;57;1139010;-63
2022/08/03 12:45:33;;;;;;;2.70;1.95;;;;;;;32.23;35.03;100784.98;5075243;57;1139145;-64
2022/08/03 12:50:40;;;;;;;1.65;1.65;;;;;;;32.08;33.80;100780.91;5153850;56;1138963;-63
2022/08/03 12:55:45;;;;;;;2.58;1.52;;;;;;;32.04;35.46;100771.58;5153848;56;1139152;-62
2022/08/03 13:00:57;;;;;;;2.17;1.95;;;;;;;32.08;34.61;100770.53;5153126;56;1139114;-62
2022/08/03 13:06:04;;;;;;;3.70;1.80;;;;;;;32.18;34.66;100772.02;5225595;56;1138367;-65
2022/08/03 13:11:25;;;;;;;10.68;1.90;;;;;;;32.29;34.16;100766.97;5194765;56;1138986;-62
2022/08/03 13:16:32;;;;;;;2.92;1.70;;;;;;;32.53;34.80;100761.22;5221354;56;1138988;-63
2022/08/03 13:21:38;;;;;;;3.08;1.60;;;;;;;32.60;34.14;100760.45;5226909;56;1136854;-64
2022/08/03 13:26:44;;;;;;;3.80;1.62;;;;;;;32.50;33.59;100761.19;5232611;56;1136945;-63
2022/08/03 13:31:49;;;;;;;7.17;1.40;;;;;;;32.65;33.64;100759.97;5159500;56;1136976;-63
2022/08/03 13:36:56;;;;;;;2.37;1.55;;;;;;;32.71;33.78;100753.98;5146057;57;1137091;-63
2022/08/03 13:42:01;;;;;;;6.70;1.85;;;;;;;32.81;33.75;100756.33;5158714;56;1136919;-65
2022/08/03 13:47:07;;;;;;;2.98;1.40;;;;;;;32.85;32.58;100750.58;5223667;56;1137110;-63
2022/08/03 13:52:12;;;;;;;8.28;1.60;;;;;;;32.81;32.45;100749.48;5205992;56;1137133;-64
2022/08/03 13:57:18;;;;;;;3.70;1.47;;;;;;;32.96;33.71;100738.36;5232596;56;1136952;-64
2022/08/03 14:02:24;;;;;;;1.50;1.45;;;;;;;33.20;33.24;100739.09;5216840;56;1136914;-65
2022/08/03 14:07:30;;;;;;;1.22;1.20;;;;;;;33.20;29.79;100732.78;5119720;56;1137060;-65
2022/08/03 14:12:36;;;;;;;1.22;1.22;;;;;;;33.14;28.69;100726.45;5156481;56;1136917;-66
2022/08/03 14:17:42;;;;;;;7.08;1.15;;;;;;;33.23;29.70;100717.73;5156430;56;1136895;-66
2022/08/03 14:22:48;;;;;;;4.60;1.50;;;;;;;33.24;29.79;100722.95;5156673;56;1137110;-63
2022/08/03 14:27:54;;;;;;;2.22;1.32;;;;;;;33.40;28.23;100717.88;5150808;56;1136822;-66
2022/08/03 14:33:00;;;;;;;1.57;1.47;;;;;;;33.35;28.88;100706.04;5133962;57;1136897;-63
2022/08/03 14:38:06;;;;;;;2.08;1.77;;;;;;;33.41;29.03;100704.99;5095862;56;1137256;-64
2022/08/03 14:43:12;;;;;;;4.33;1.60;;;;;;;33.47;29.07;100703.37;5156368;56;1136905;-65
2022/08/03 14:48:19;;;;;;;9.00;1.70;;;;;;;33.62;28.50;100703.16;5142232;56;1134930;-66
2022/08/03 14:53:25;;;;;;;1.20;1.20;;;;;;;33.66;27.72;100704.29;5131480;56;1134754;-63
2022/08/03 14:58:31;;;;;;;9.25;1.42;;;;;;;33.59;27.18;100696.32;5120840;57;1138882;-67
2022/08/03 15:03:36;;;;;;;4.72;1.60;;;;;;;33.51;27.12;100699.55;5134727;56;1139016;-64
2022/08/03 15:08:42;;;;;;;1.80;1.10;;;;;;;33.61;27.63;100698.22;5195754;56;1139054;-64
2022/08/03 15:13:47;;;;;;;3.73;1.80;;;;;;;33.70;27.25;100697.19;5199062;56;1139181;-66
2022/08/03 15:18:53;;;;;;;1.80;1.20;;;;;;;33.62;28.15;100689.45;5232252;56;1138946;-67
2022/08/03 15:23:59;;;;;;;3.27;1.40;;;;;;;33.73;27.38;100694.73;5232111;56;1138997;-66
2022/08/03 15:29:06;;;;;;;1.20;1.20;;;;;;;33.73;27.87;100689.80;5206315;56;1139197;-65
2022/08/03 15:34:12;;;;;;;5.28;2.52;;;;;;;33.80;27.21;100686.27;5225298;56;1138959;-66
2022/08/03 15:39:18;;;;;;;3.33;1.25;;;;;;;33.74;27.83;100678.55;5134010;57;1139102;-66
2022/08/03 15:44:24;;;;;;;9.58;2.05;;;;;;;33.71;27.38;100679.63;5133675;56;1139085;-63
2022/08/03 15:49:29;;;;;;;2.90;1.30;;;;;;;33.74;27.69;100677.73;5241615;56;1139036;-65
2022/08/03 15:54:35;;;;;;;7.75;1.47;;;;;;;33.74;27.58;100676.36;5241345;56;1139127;-63
2022/08/03 15:59:41;;;;;;;5.37;1.55;;;;;;;33.73;27.54;100668.67;5241344;56;1139002;-64
2022/08/03 16:04:46;;;;;;;3.20;1.47;;;;;;;33.80;28.10;100673.92;5222318;56;1139314;-63
2022/08/03 16:09:53;;;;;;;2.83;1.30;;;;;;;33.75;27.15;100674.72;5151542;57;1138930;-64
2022/08/03 16:15:00;;;;;;;2.75;1.60;;;;;;;33.76;27.43;100671.44;5144995;57;1138999;-64
2022/08/03 16:20:07;;;;;;;1.40;1.30;;;;;;;33.81;27.20;100666.80;5150124;57;1139132;-64
2022/08/03 16:25:15;;;;;;;3.15;1.27;;;;;;;33.63;27.58;100656.27;5127338;57;1139287;-65
2022/08/03 16:30:21;;;;;;;1.82;1.67;;;;;;;33.53;27.77;100655.69;5127202;57;1138972;-64
2022/08/03 16:35:27;;;;;;;1.87;1.47;;;;;;;33.46;28.14;100655.09;5127657;57;1139148;-64
2022/08/03 16:40:33;;;;;;;4.75;1.70;;;;;;;33.40;28.32;100652.61;5107051;57;1139115;-63
2022/08/03 16:45:39;;;;;;;4.50;1.95;;;;;;;33.25;29.61;100647.88;5139385;57;1138929;-63
2022/08/03 16:50:45;;;;;;;16.07;2.83;;;;;;;33.05;29.92;100649.08;5148250;56;1139229;-65
2022/08/03 16:55:52;;;;;;;2.15;1.87;;;;;;;32.72;31.07;100659.77;5151531;56;1141006;-64
2022/08/03 17:00:57;;;;;;;5.47;1.60;;;;;;;32.58;31.33;100666.22;5144892;56;1139093;-64
2022/08/03 17:06:03;;;;;;;2.47;1.70;;;;;;;32.56;31.56;100664.28;5155300;57;1139288;-66
2022/08/03 17:11:09;;;;;;;4.97;2.55;;;;;;;32.52;32.43;100670.02;5155388;57;1139236;-67
2022/08/03 17:16:17;;;;;;;13.25;6.05;;;;;;;32.39;32.97;100667.69;5145888;57;1139455;-66
2022/08/03 17:21:31;;;;;;;2.72;2.08;;;;;;;32.32;33.67;100662.98;5142879;57;1141113;-65
2022/08/03 17:26:43;;;;;;;8.05;2.27;;;;;;;32.25;33.93;100673.30;5091487;57;1139031;-65
2022/08/03 17:31:52;;;;;;;8.98;2.45;;;;;;;32.09;33.97;100672.27;5108738;56;1138936;-66
2022/08/03 17:36:57;;;;;;;9.13;2.77;;;;;;;31.89;34.43;100677.00;5113674;56;1139030;-65
2022/08/03 17:42:04;;;;;;;9.03;5.83;;;;;;;31.73;34.97;100678.72;5114148;57;1138990;-63
2022/08/03 17:47:10;;;;;;;40.73;16.93;;;;;;;31.69;35.45;100681.67;5106811;56;1138991;-66
2022/08/03 17:52:34;;;;;;;77.32;33.55;;;;;;;31.71;35.84;100682.25;5144812;56;1143178;-65
2022/08/03 17:57:57;;;;;;;75.22;32.50;;;;;;;31.70;36.13;100685.23;5154279;56;1141080;-63
2022/08/03 18:03:22;;;;;;;13.13;4.60;;;;;;;31.66;36.24;100692.28;5203451;56;1141067;-64
2022/08/03 18:08:38;;;;;;;7.20;1.87;;;;;;;31.56;36.44;100683.92;5092481;57;1139009;-65
2022/08/03 18:13:58;;;;;;;6.95;3.80;;;;;;;31.43;36.57;100684.59;5120079;57;1136953;-64
2022/08/03 18:19:05;;;;;;;16.55;8.05;;;;;;;31.33;36.94;100685.80;5115615;57;1135073;-66
2022/08/03 18:24:12;;;;;;;4.55;2.33;;;;;;;31.18;37.30;100687.47;5091517;57;1141087;-65
2022/08/03 18:29:19;;;;;;;3.12;2.50;;;;;;;31.08;37.72;100687.59;5112949;57;1138990;-64
2022/08/03 18:34:27;;;;;;;11.83;2.40;;;;;;;31.03;38.05;100697.06;5135654;56;1138920;-62
2022/08/03 18:39:33;;;;;;;4.28;2.00;;;;;;;30.92;38.38;100699.89;5121527;57;1141037;-65
2022/08/03 18:44:40;;;;;;;8.73;2.20;;;;;;;30.78;38.67;100702.95;5095976;57;1139035;-66
2022/08/03 18:49:56;;;;;;;275.38;17.40;;;;;;;30.64;39.28;100709.81;5192631;56;1138984;-63
2022/08/03 18:55:15;;;;;;;31.77;3.35;;;;;;;30.54;39.43;100712.88;5206449;56;1145254;-65
2022/08/03 19:00:21;;;;;;;17.42;3.30;;;;;;;30.36;40.12;100710.65;5205965;56;1141108;-62
2022/08/03 19:05:31;;;;;;;22.52;3.15;;;;;;;30.18;40.21;100723.12;5202260;57;1141116;-66
2022/08/03 19:10:40;;;;;;;9.55;3.45;;;;;;;30.03;40.74;100721.45;5175465;56;1141129;-63
2022/08/03 19:15:48;;;;;;;52.00;6.40;;;;;;;29.89;41.19;100726.86;5121588;57;1139094;-63
2022/08/03 19:20:54;;;;;;;24.25;4.15;;;;;;;29.78;41.83;100727.19;5155006;56;1141066;-66
2022/08/03 19:26:02;;;;;;;21.55;4.35;;;;;;;29.71;42.21;100730.56;5154069;56;1141016;-63
2022/08/03 19:31:10;;;;;;;18.85;4.75;;;;;;;29.57;42.78;100719.09;5142664;56;1141070;-65
2022/08/03 19:36:16;;;;;;;12.45;3.70;;;;;;;29.42;43.14;100732.91;5180939;56;1141085;-65
2022/08/03 19:41:27;;;;;;;15.60;4.20;;;;;;;29.26;43.42;100729.80;5175750;56;1141064;-64
2022/08/03 19:46:47;;;;;;;15.88;3.95;;;;;;;29.15;43.82;100725.70;5138187;56;1141248;-65
2022/08/03 19:51:54;;;;;;;15.28;3.87;;;;;;;29.02;44.08;100726.23;5121235;57;1141057;-64
2022/08/03 19:57:03;;;;;;;8.43;4.70;;;;;;;28.94;44.38;100737.45;5121676;57;1141013;-64
2022/08/03 20:02:09;;;;;;;15.60;4.62;;;;;;;28.82;44.85;100740.70;5158828;57;1139040;-66
2022/08/03 20:07:16;;;;;;;10.50;3.77;;;;;;;28.73;45.12;100742.05;5202146;56;1141095;-63
2022/08/03 20:12:21;;;;;;;24.90;4.90;;;;;;;28.56;45.46;100735.63;5203323;56;1141100;-63
2022/08/03 20:17:28;;;;;;;12.05;4.08;;;;;;;28.46;45.97;100738.06;5205632;56;1141061;-63
2022/08/03 20:22:37;;;;;;;7.85;3.20;;;;;;;28.30;46.56;100739.00;5207907;56;1141179;-63
2022/08/03 20:27:47;;;;;;;16.93;3.95;;;;;;;28.17;46.55;100745.95;5205656;56;1138962;-63
2022/08/03 20:32:53;;;;;;;13.40;3.90;;;;;;;28.07;46.78;100740.76;5068404;57;1141370;-62
2022/08/03 20:37:59;;;;;;;16.02;4.28;;;;;;;27.99;47.48;100745.44;5106327;57;1138870;-65
2022/08/03 20:43:04;;;;;;;8.27;4.97;;;;;;;27.89;47.45;100748.39;5062588;57;1138952;-64
2022/08/03 20:48:11;;;;;;;17.95;4.28;;;;;;;27.87;47.77;100753.22;5035879;58;1136963;-63
2022/08/03 20:53:18;;;;;;;9.43;4.15;;;;;;;27.71;48.25;100747.86;5035618;58;1139084;-63
2022/08/03 20:58:25;;;;;;;6.28;3.42;;;;;;;27.54;48.64;100748.11;5035759;58;1136964;-62
2022/08/03 21:03:31;;;;;;;19.90;4.35;;;;;;;27.47;49.04;100750.08;5096386;57;1136995;-64
2022/08/03 21:08:39;;;;;;;11.03;3.90;;;;;;;27.40;49.30;100756.09;5128624;56;1139068;-64
2022/08/03 21:14:03;;;;;;;12.58;3.87;;;;;;;27.24;49.92;100763.75;5136550;57;1139199;-64
2022/08/03 21:19:09;;;;;;;9.90;4.03;;;;;;;27.04;50.51;100759.55;5134576;57;1139086;-66
2022/08/03 21:24:15;;;;;;;13.05;4.25;;;;;;;26.87;50.95;100766.84;5134167;57;1136957;-64
2022/08/03 21:29:21;;;;;;;9.25;4.95;;;;;;;26.73;51.42;100769.87;5112587;57;1139039;-62
2022/08/03 21:34:28;;;;;;;19.62;5.17;;;;;;;26.58;51.85;100770.97;5017290;57;1136920;-65
2022/08/03 21:39:35;;;;;;;7.58;4.42;;;;;;;26.48;52.19;100775.21;5098936;57;1139404;-65
2022/08/03 21:44:41;;;;;;;14.98;4.60;;;;;;;26.39;52.31;100776.52;5051319;57;1135107;-67
2022/08/03 21:49:52;;;;;;;14.20;4.85;;;;;;;26.32;52.81;100781.12;5051173;58;1136993;-66
2022/08/03 21:55:03;;;;;;;9.37;4.00;;;;;;;26.22;52.73;100776.98;5051272;58;1141066;-65
2022/08/03 22:00:18;;;;;;;10.23;4.47;;;;;;;26.14;52.97;100773.66;5055619;57;1139219;-64
2022/08/03 22:05:25;;;;;;;11.93;4.28;;;;;;;26.02;52.96;100772.67;5099493;57;1141091;-65
2022/08/03 22:10:31;;;;;;;10.18;5.03;;;;;;;25.87;53.08;100772.41;5139031;57;1141614;-64
2022/08/03 22:15:36;;;;;;;11.22;4.20;;;;;;;25.82;53.07;100774.08;5154311;57;1141336;-64
2022/08/03 22:20:46;;;;;;;8.10;4.28;;;;;;;25.77;53.27;100777.96;5155114;57;1141019;-66
2022/08/03 22:25:55;;;;;;;10.23;4.42;;;;;;;25.73;53.30;100779.42;5155148;57;1139412;-63
2022/08/03 22:31:01;;;;;;;7.50;4.35;;;;;;;25.68;53.51;100784.63;5097520;57;1141062;-63
2022/08/03 22:36:09;;;;;;;11.18;4.67;;;;;;;25.63;53.36;100783.09;5107215;57;1139191;-66
2022/08/03 22:41:19;;;;;;;9.50;4.55;;;;;;;25.53;53.80;100782.95;5088075;57;1141271;-63
2022/08/03 22:46:27;;;;;;;6.10;4.33;;;;;;;25.49;53.73;100787.67;5066207;58;1139357;-64
2022/08/03 22:51:34;;;;;;;14.70;5.12;;;;;;;25.48;53.60;100788.20;5066973;58;1139324;-66
2022/08/03 22:56:40;;;;;;;5.30;4.28;;;;;;;25.43;53.51;100796.10;4974660;59;1141097;-66
2022/08/03 23:01:47;;;;;;;5.08;4.47;;;;;;;25.36;53.41;100791.75;5098932;57;1138963;-65
2022/08/03 23:06:56;;;;;;;8.23;4.20;;;;;;;25.32;53.25;100798.09;5172777;56;1138926;-64
2022/08/03 23:12:05;;;;;;;8.28;4.92;;;;;;;25.23;53.28;100795.27;5210984;56;1139035;-66
2022/08/03 23:17:14;;;;;;;6.83;4.40;;;;;;;25.13;53.50;100797.56;5211397;56;1139447;-63
2022/08/03 23:22:20;;;;;;;6.65;4.83;;;;;;;25.09;53.57;100807.96;5211431;56;1139248;-65
2022/08/03 23:27:27;;;;;;;11.57;4.75;;;;;;;25.05;53.52;100808.60;5211649;56;1138964;-64